Terminal Aerodrome Forecast
Issued by NWS Duluth, MN

Home | Current Version | Previous Version | Text Only | Print | Product List | Glossary On
Versions: 1 2 3 4 5 6 7 8 9 10 11 12 13 14 15 16 17 18 19
000
FTUS43 KDLH 020904 AAD
TAFDLH
TAF AMD
KDLH 020904Z 0209/0306 09006KT 5SM BR VCTS SCT040CB SCT100 BKN120
      TEMPO 0209/0212 2SM BR BKN003
     FM021500 09008KT P6SM SCT022 SCT080
     FM030100 06005KT 6SM HZ BR SCT040=

USA.gov is the U.S. government's official web portal to all federal, state and local government web resources and services.